Time,TemperatureF,DewpointF,PressureIn,WindDirection,WindDirectionDegrees,WindSpeedMPH,WindSpeedGustMPH,Humidity,HourlyPrecipIn,Conditions,Clouds,dailyrainin,SoftwareType,DateUTC
2013-02-22 00:00:00,71.2,68.7,29.86,SW,236,0.0,11.0,92,0.00,,,0.00,meteohub,2013-02-22 05:00:00,
2013-02-22 00:02:00,71.2,68.7,29.86,SW,234,4.0,11.0,92,0.00,,,0.00,meteohub,2013-02-22 05:02:00,
2013-02-22 00:03:00,71.2,68.7,29.86,West,267,5.0,11.0,92,0.00,,,0.00,meteohub,2013-02-22 05:03:00,
2013-02-22 00:08:00,71.2,68.7,29.86,SW,228,2.0,12.0,92,0.00,,,0.00,meteohub,2013-02-22 05:08:00,
2013-02-22 00:13:00,71.2,68.7,29.86,WSW,248,0.0,12.0,92,0.00,,,0.00,meteohub,2013-02-22 05:13:00,
2013-02-22 00:18:00,71.2,68.7,29.86,SSW,213,3.0,12.0,92,0.00,,,0.00,meteohub,2013-02-22 05:18:00,
2013-02-22 00:23:00,71.2,68.7,29.86,WSW,255,1.0,10.0,92,0.00,,,0.00,meteohub,2013-02-22 05:23:00,
2013-02-22 00:28:00,71.2,68.7,29.86,SSE,161,4.0,10.0,92,0.00,,,0.00,meteohub,2013-02-22 05:28:00,
2013-02-22 00:33:00,71.2,68.7,29.86,West,268,3.0,8.0,92,0.00,,,0.00,meteohub,2013-02-22 05:33:00,
2013-02-22 00:38:00,71.2,68.7,29.86,SW,226,0.0,8.0,92,0.00,,,0.00,meteohub,2013-02-22 05:38:00,
2013-02-22 00:43:00,71.2,68.7,29.86,West,265,0.0,8.0,92,0.00,,,0.00,meteohub,2013-02-22 05:43:00,
2013-02-22 00:48:00,71.2,68.7,29.85,WSW,257,6.0,6.0,92,0.00,,,0.00,meteohub,2013-02-22 05:48:00,
2013-02-22 00:53:00,71.2,69.1,29.85,West,277,5.0,5.0,93,0.00,,,0.00,meteohub,2013-02-22 05:53:00,
2013-02-22 00:58:00,71.2,69.1,29.85,West,270,0.0,8.0,93,0.00,,,0.00,meteohub,2013-02-22 05:58:00,
2013-02-22 01:03:00,71.2,69.1,29.85,SSW,204,6.0,8.0,93,0.00,,,0.00,meteohub,2013-02-22 06:03:00,
2013-02-22 01:08:00,71.2,69.1,29.85,SSW,203,1.0,8.0,93,0.00,,,0.00,meteohub,2013-02-22 06:08:00,
2013-02-22 01:13:00,71.2,69.1,29.85,WSW,240,0.0,12.0,93,0.00,,,0.00,meteohub,2013-02-22 06:13:00,
2013-02-22 01:19:00,71.1,68.9,29.85,WSW,244,0.0,12.0,93,0.00,,,0.00,meteohub,2013-02-22 06:19:00,
2013-02-22 01:24:00,71.1,68.9,29.86,WSW,240,0.0,12.0,93,0.00,,,0.00,meteohub,2013-02-22 06:24:00,
2013-02-22 01:29:00,71.1,68.9,29.85,WSW,238,0.0,9.0,93,0.00,,,0.00,meteohub,2013-02-22 06:29:00,
2013-02-22 01:34:00,70.9,68.7,29.86,WSW,238,0.0,6.0,93,0.00,,,0.00,meteohub,2013-02-22 06:34:00,
2013-02-22 01:39:00,70.9,68.7,29.85,WSW,238,0.0,6.0,93,0.00,,,0.00,meteohub,2013-02-22 06:39:00,
2013-02-22 01:44:00,70.7,68.5,29.85,WSW,238,0.0,6.0,93,0.00,,,0.00,meteohub,2013-02-22 06:44:00,
2013-02-22 01:49:00,70.7,68.5,29.85,WSW,239,0.0,0.0,93,0.00,,,0.00,meteohub,2013-02-22 06:49:00,
2013-02-22 01:54:00,70.5,68.7,29.85,WSW,239,0.0,0.0,94,0.00,,,0.00,meteohub,2013-02-22 06:54:00,
2013-02-22 01:59:00,70.5,68.7,29.86,WSW,239,0.0,0.0,94,0.00,,,0.00,meteohub,2013-02-22 06:59:00,
2013-02-22 02:04:00,70.3,68.5,29.86,WSW,238,0.0,0.0,94,0.00,,,0.00,meteohub,2013-02-22 07:04:00,
2013-02-22 02:09:00,70.3,68.5,29.86,WSW,239,0.0,0.0,94,0.00,,,0.00,meteohub,2013-02-22 07:09:00,
2013-02-22 02:14:00,70.3,68.5,29.85,WSW,238,0.0,0.0,94,0.00,,,0.00,meteohub,2013-02-22 07:14:00,
2013-02-22 02:19:00,70.3,68.5,29.86,WSW,239,0.0,0.0,94,0.00,,,0.00,meteohub,2013-02-22 07:19:00,
2013-02-22 02:24:00,70.2,68.4,29.86,WSW,239,0.0,0.0,94,0.00,,,0.00,meteohub,2013-02-22 07:24:00,
2013-02-22 02:29:00,70.2,68.4,29.86,WSW,238,0.0,1.0,94,0.00,,,0.00,meteohub,2013-02-22 07:29:00,
2013-02-22 02:34:00,70.2,68.4,29.86,WSW,238,0.0,1.0,94,0.00,,,0.00,meteohub,2013-02-22 07:34:00,
2013-02-22 02:39:00,70.0,68.2,29.86,WSW,239,0.0,1.0,94,0.00,,,0.00,meteohub,2013-02-22 07:39:00,
2013-02-22 02:44:00,69.6,67.5,29.86,North,5,2.0,2.0,93,0.00,,,0.00,meteohub,2013-02-22 07:44:00,
2013-02-22 02:49:00,68.5,65.8,29.86,NNE,32,0.0,8.0,91,0.00,,,0.00,meteohub,2013-02-22 07:49:00,
2013-02-22 02:55:00,67.8,65.1,29.87,North,0,0.0,10.0,91,0.00,,,0.00,meteohub,2013-02-22 07:55:00,
2013-02-22 03:00:00,67.5,64.8,29.86,NE,34,0.0,10.0,91,0.00,,,0.00,meteohub,2013-02-22 08:00:00,
2013-02-22 03:05:00,67.1,64.4,29.86,NE,34,0.0,7.0,91,0.00,,,0.00,meteohub,2013-02-22 08:05:00,
2013-02-22 03:10:00,66.7,64.0,29.86,NW,325,0.0,6.0,91,0.00,,,0.00,meteohub,2013-02-22 08:10:00,
2013-02-22 03:15:00,66.6,63.5,29.87,NNW,327,1.0,6.0,90,0.00,,,0.00,meteohub,2013-02-22 08:15:00,
2013-02-22 03:20:00,66.2,63.1,29.87,NNW,327,0.0,4.0,90,0.00,,,0.00,meteohub,2013-02-22 08:20:00,
2013-02-22 03:25:00,66.0,63.0,29.87,NNW,327,0.0,2.0,90,0.00,,,0.00,meteohub,2013-02-22 08:25:00,
2013-02-22 03:30:00,65.8,62.8,29.88,NNW,327,0.0,1.0,90,0.00,,,0.00,meteohub,2013-02-22 08:30:00,
2013-02-22 03:35:00,65.7,62.6,29.87,NNE,32,0.0,5.0,90,0.00,,,0.00,meteohub,2013-02-22 08:35:00,
2013-02-22 03:40:00,65.3,62.1,29.86,NNE,32,0.0,8.0,89,0.00,,,0.00,meteohub,2013-02-22 08:40:00,
2013-02-22 03:45:00,64.9,61.9,29.87,NNE,32,0.0,8.0,90,0.00,,,0.00,meteohub,2013-02-22 08:45:00,
2013-02-22 03:50:00,64.8,61.7,29.86,South,175,0.0,5.0,90,0.00,,,0.00,meteohub,2013-02-22 08:50:00,
2013-02-22 03:55:00,64.6,61.5,29.86,ENE,68,0.0,6.0,90,0.00,,,0.00,meteohub,2013-02-22 08:55:00,
2013-02-22 04:00:00,64.4,61.2,29.86,NE,51,0.0,6.0,89,0.00,,,0.00,meteohub,2013-02-22 09:00:00,
2013-02-22 04:05:00,64.2,61.0,29.86,NE,52,0.0,6.0,89,0.00,,,0.00,meteohub,2013-02-22 09:05:00,
2013-02-22 04:10:00,64.2,61.0,29.86,NE,53,0.0,4.0,89,0.00,,,0.00,meteohub,2013-02-22 09:10:00,
2013-02-22 04:15:00,64.0,60.8,29.86,NE,49,0.0,1.0,89,0.00,,,0.00,meteohub,2013-02-22 09:15:00,
2013-02-22 04:20:00,64.0,60.8,29.86,NE,51,0.0,5.0,89,0.00,,,0.00,meteohub,2013-02-22 09:20:00,
2013-02-22 04:25:00,63.9,60.6,29.86,SSE,160,0.0,5.0,89,0.00,,,0.00,meteohub,2013-02-22 09:25:00,
2013-02-22 04:30:00,63.9,60.6,29.86,SW,234,0.0,4.0,89,0.00,,,0.00,meteohub,2013-02-22 09:30:00,
2013-02-22 04:35:00,63.7,60.4,29.86,SSE,151,6.0,6.0,89,0.00,,,0.00,meteohub,2013-02-22 09:35:00,
2013-02-22 04:41:00,63.7,60.4,29.86,South,182,1.0,8.0,89,0.00,,,0.00,meteohub,2013-02-22 09:41:00,
2013-02-22 04:46:00,63.7,60.4,29.86,South,177,0.0,8.0,89,0.00,,,0.00,meteohub,2013-02-22 09:46:00,
2013-02-22 04:51:00,63.7,60.4,29.86,South,169,0.0,8.0,89,0.00,,,0.00,meteohub,2013-02-22 09:51:00,
2013-02-22 04:56:00,63.7,60.4,29.86,SSE,151,2.0,6.0,89,0.00,,,0.00,meteohub,2013-02-22 09:56:00,
2013-02-22 05:01:00,63.5,60.3,29.86,NE,43,2.0,7.0,89,0.00,,,0.00,meteohub,2013-02-22 10:01:00,
2013-02-22 05:06:00,63.5,60.3,29.87,NE,43,0.0,7.0,89,0.00,,,0.00,meteohub,2013-02-22 10:06:00,
2013-02-22 05:11:00,63.5,60.3,29.87,ESE,114,0.0,5.0,89,0.00,,,0.00,meteohub,2013-02-22 10:11:00,
2013-02-22 05:16:00,63.5,60.3,29.87,SE,145,0.0,4.0,89,0.00,,,0.00,meteohub,2013-02-22 10:16:00,
2013-02-22 05:21:00,63.5,60.3,29.88,NE,40,0.0,5.0,89,0.00,,,0.00,meteohub,2013-02-22 10:21:00,
2013-02-22 05:26:00,63.5,60.3,29.88,NE,46,0.0,5.0,89,0.00,,,0.00,meteohub,2013-02-22 10:26:00,
2013-02-22 05:31:00,63.3,60.3,29.88,ESE,110,0.0,5.0,90,0.00,,,0.00,meteohub,2013-02-22 10:31:00,
2013-02-22 05:36:00,63.5,60.4,29.88,ESE,110,0.0,4.0,90,0.00,,,0.00,meteohub,2013-02-22 10:36:00,
2013-02-22 05:41:00,63.5,60.4,29.88,ENE,63,3.0,3.0,90,0.00,,,0.00,meteohub,2013-02-22 10:41:00,
2013-02-22 05:46:00,63.5,60.4,29.89,NE,53,0.0,4.0,90,0.00,,,0.00,meteohub,2013-02-22 10:46:00,
2013-02-22 05:51:00,63.3,60.3,29.90,NE,42,0.0,6.0,90,0.00,,,0.00,meteohub,2013-02-22 10:51:00,
2013-02-22 05:56:00,63.3,60.3,29.90,NE,45,0.0,6.0,90,0.00,,,0.00,meteohub,2013-02-22 10:56:00,
2013-02-22 06:01:00,63.3,60.3,29.90,NE,45,0.0,5.0,90,0.00,,,0.00,meteohub,2013-02-22 11:01:00,
2013-02-22 06:06:00,63.3,60.3,29.91,NE,45,0.0,5.0,90,0.00,,,0.00,meteohub,2013-02-22 11:06:00,
2013-02-22 06:11:00,63.3,60.3,29.90,NE,45,0.0,4.0,90,0.00,,,0.00,meteohub,2013-02-22 11:11:00,
2013-02-22 06:17:00,63.3,60.3,29.90,NE,45,0.0,3.0,90,0.00,,,0.00,meteohub,2013-02-22 11:17:00,
2013-02-22 06:22:00,63.1,60.1,29.90,NE,45,0.0,3.0,90,0.00,,,0.00,meteohub,2013-02-22 11:22:00,
2013-02-22 06:27:00,63.1,60.1,29.90,NE,45,0.0,3.0,90,0.00,,,0.00,meteohub,2013-02-22 11:27:00,
2013-02-22 06:32:00,63.0,59.9,29.90,NE,45,0.0,3.0,90,0.00,,,0.00,meteohub,2013-02-22 11:32:00,
2013-02-22 06:37:00,62.8,59.7,29.89,SSW,196,0.0,3.0,90,0.00,,,0.00,meteohub,2013-02-22 11:37:00,
2013-02-22 06:42:00,62.6,59.5,29.89,SSW,196,0.0,3.0,90,0.00,,,0.00,meteohub,2013-02-22 11:42:00,
2013-02-22 06:47:00,62.4,59.4,29.90,South,185,0.0,3.0,90,0.00,,,0.00,meteohub,2013-02-22 11:47:00,
2013-02-22 06:52:00,62.2,59.2,29.89,South,185,0.0,2.0,90,0.00,,,0.00,meteohub,2013-02-22 11:52:00,
2013-02-22 06:57:00,62.1,59.2,29.89,SSE,155,4.0,4.0,90,0.00,,,0.00,meteohub,2013-02-22 11:57:00,
2013-02-22 07:02:00,62.1,59.2,29.89,SE,146,0.0,7.0,90,0.00,,,0.00,meteohub,2013-02-22 12:02:00,
2013-02-22 07:07:00,61.9,59.0,29.90,ENE,62,0.0,7.0,90,0.00,,,0.00,meteohub,2013-02-22 12:07:00,
2013-02-22 07:12:00,61.9,59.0,29.91,South,175,0.0,7.0,90,0.00,,,0.00,meteohub,2013-02-22 12:12:00,
2013-02-22 07:17:00,61.9,59.0,29.91,South,175,0.0,6.0,90,0.00,,,0.00,meteohub,2013-02-22 12:17:00,
2013-02-22 07:22:00,61.9,58.6,29.92,South,175,0.0,6.0,89,0.00,,,0.00,meteohub,2013-02-22 12:22:00,
2013-02-22 07:27:00,61.9,58.6,29.92,South,175,0.0,6.0,89,0.00,,,0.00,meteohub,2013-02-22 12:27:00,
2013-02-22 07:32:00,61.9,58.6,29.92,South,175,0.0,4.0,89,0.00,,,0.00,meteohub,2013-02-22 12:32:00,
2013-02-22 07:37:00,61.9,58.6,29.92,NE,51,0.0,3.0,89,0.00,,,0.00,meteohub,2013-02-22 12:37:00,
2013-02-22 07:42:00,61.9,58.3,29.93,NE,53,0.0,6.0,88,0.00,,,0.00,meteohub,2013-02-22 12:42:00,
2013-02-22 07:47:00,61.9,58.3,29.93,NE,53,0.0,6.0,88,0.00,,,0.00,meteohub,2013-02-22 12:47:00,
2013-02-22 07:52:00,61.9,57.9,29.94,NE,47,0.0,6.0,87,0.00,,,0.00,meteohub,2013-02-22 12:52:00,
2013-02-22 07:57:00,61.9,57.9,29.94,NE,41,0.0,4.0,87,0.00,,,0.00,meteohub,2013-02-22 12:57:00,
2013-02-22 08:02:00,61.9,57.6,29.94,ENE,78,0.0,4.0,86,0.00,,,0.00,meteohub,2013-02-22 13:02:00,
2013-02-22 08:07:00,61.9,57.4,29.94,ESE,120,0.0,4.0,85,0.00,,,0.00,meteohub,2013-02-22 13:07:00,
2013-02-22 08:12:00,62.1,57.2,29.95,NE,52,1.0,7.0,84,0.00,,,0.00,meteohub,2013-02-22 13:12:00,
2013-02-22 08:17:00,61.9,56.7,29.94,SE,134,0.0,7.0,83,0.00,,,0.00,meteohub,2013-02-22 13:17:00,
2013-02-22 08:22:00,62.1,56.8,29.94,SSE,166,0.0,7.0,83,0.00,,,0.00,meteohub,2013-02-22 13:22:00,
2013-02-22 08:27:00,62.1,56.5,29.94,East,94,0.0,5.0,82,0.00,,,0.00,meteohub,2013-02-22 13:27:00,
2013-02-22 08:32:00,62.1,56.1,29.94,SE,124,0.0,9.0,81,0.00,,,0.00,meteohub,2013-02-22 13:32:00,
2013-02-22 08:37:00,62.1,56.1,29.95,ESE,115,2.0,9.0,81,0.00,,,0.00,meteohub,2013-02-22 13:37:00,
2013-02-22 08:42:00,62.2,55.6,29.95,ESE,119,2.0,10.0,79,0.00,,,0.00,meteohub,2013-02-22 13:42:00,
2013-02-22 08:47:00,62.2,55.6,29.95,ESE,110,6.0,10.0,79,0.00,,,0.00,meteohub,2013-02-22 13:47:00,
2013-02-22 08:52:00,62.4,55.4,29.95,ESE,118,0.0,8.0,78,0.00,,,0.00,meteohub,2013-02-22 13:52:00,
2013-02-22 08:57:00,62.8,55.8,29.95,South,169,0.0,9.0,78,0.00,,,0.00,meteohub,2013-02-22 13:57:00,
2013-02-22 09:02:00,63.0,54.9,29.96,SE,146,4.0,9.0,75,0.00,,,0.00,meteohub,2013-02-22 14:02:00,
2013-02-22 09:07:00,63.1,54.7,29.96,SSE,158,6.0,10.0,74,0.00,,,0.00,meteohub,2013-02-22 14:07:00,
2013-02-22 09:12:00,63.3,54.5,29.96,SE,140,9.0,10.0,73,0.00,,,0.00,meteohub,2013-02-22 14:12:00,
2013-02-22 09:17:00,63.5,54.7,29.95,ESE,121,0.0,13.0,73,0.00,,,0.00,meteohub,2013-02-22 14:17:00,
2013-02-22 09:22:00,63.9,55.0,29.96,ENE,63,4.0,13.0,73,0.00,,,0.00,meteohub,2013-02-22 14:22:00,
2013-02-22 09:27:00,63.9,53.4,29.96,SE,136,0.0,13.0,69,0.00,,,0.00,meteohub,2013-02-22 14:27:00,
2013-02-22 09:32:00,63.9,54.0,29.96,NE,52,0.0,12.0,70,0.00,,,0.00,meteohub,2013-02-22 14:32:00,
2013-02-22 09:37:00,64.0,54.1,29.96,East,79,0.0,12.0,70,0.00,,,0.00,meteohub,2013-02-22 14:37:00,
2013-02-22 09:42:00,64.0,53.2,29.96,SSE,148,6.0,12.0,68,0.00,,,0.00,meteohub,2013-02-22 14:42:00,
2013-02-22 09:47:00,63.9,53.1,29.96,SSE,153,4.0,11.0,68,0.00,,,0.00,meteohub,2013-02-22 14:47:00,
2013-02-22 09:52:00,64.0,53.2,29.96,SSE,153,0.0,11.0,68,0.00,,,0.00,meteohub,2013-02-22 14:52:00,
2013-02-22 09:57:00,64.0,53.6,29.96,NE,44,1.0,11.0,69,0.00,,,0.00,meteohub,2013-02-22 14:57:00,
2013-02-22 10:02:00,64.2,54.3,29.97,East,86,0.0,7.0,70,0.00,,,0.00,meteohub,2013-02-22 15:02:00,
2013-02-22 10:07:00,64.2,53.4,29.97,South,181,0.0,6.0,68,0.00,,,0.00,meteohub,2013-02-22 15:07:00,
2013-02-22 10:12:00,64.0,53.2,29.98,SSE,160,2.0,6.0,68,0.00,,,0.00,meteohub,2013-02-22 15:12:00,
2013-02-22 10:17:00,64.0,53.2,29.97,ENE,77,0.0,7.0,68,0.00,,,0.00,meteohub,2013-02-22 15:17:00,
2013-02-22 10:22:00,63.9,52.7,29.97,SSE,167,0.0,7.0,67,0.00,,,0.00,meteohub,2013-02-22 15:22:00,
2013-02-22 10:27:00,63.9,53.1,29.98,SSE,154,2.0,7.0,68,0.00,,,0.00,meteohub,2013-02-22 15:27:00,
2013-02-22 10:32:00,63.9,52.7,29.98,ESE,109,0.0,6.0,67,0.00,,,0.00,meteohub,2013-02-22 15:32:00,
2013-02-22 10:37:00,63.9,53.1,29.97,South,169,0.0,7.0,68,0.00,,,0.00,meteohub,2013-02-22 15:37:00,
2013-02-22 10:42:00,63.9,53.1,29.98,SSE,167,9.0,9.0,68,0.00,,,0.00,meteohub,2013-02-22 15:42:00,
2013-02-22 10:47:00,63.5,52.7,29.98,ESE,111,7.0,11.0,68,0.00,,,0.00,meteohub,2013-02-22 15:47:00,
2013-02-22 10:52:00,63.1,53.6,29.97,SE,146,6.0,11.0,71,0.00,,,0.00,meteohub,2013-02-22 15:52:00,
2013-02-22 10:57:00,62.8,53.6,29.97,SSE,162,5.0,11.0,72,0.00,,,0.00,meteohub,2013-02-22 15:57:00,
2013-02-22 11:02:00,62.4,53.6,29.97,ESE,122,0.0,14.0,73,0.00,,,0.00,meteohub,2013-02-22 16:02:00,
2013-02-22 11:07:00,62.4,53.2,29.97,SE,139,4.0,14.0,72,0.00,,,0.00,meteohub,2013-02-22 16:07:00,
2013-02-22 11:12:00,62.4,53.6,29.97,NNE,18,0.0,14.0,73,0.00,,,0.00,meteohub,2013-02-22 16:12:00,
2013-02-22 11:17:00,62.4,52.9,29.98,ESE,120,0.0,8.0,71,0.00,,,0.00,meteohub,2013-02-22 16:17:00,
2013-02-22 11:22:00,62.6,53.1,29.97,SE,129,1.0,7.0,71,0.00,,,0.00,meteohub,2013-02-22 16:22:00,
2013-02-22 11:27:00,62.6,53.4,29.98,SE,146,7.0,17.0,72,0.00,,,0.00,meteohub,2013-02-22 16:27:00,
2013-02-22 11:32:00,62.4,52.9,29.98,SE,129,7.0,17.0,71,0.00,,,0.00,meteohub,2013-02-22 16:32:00,
2013-02-22 11:37:00,62.2,53.4,29.97,SSE,168,6.0,17.0,73,0.00,,,0.00,meteohub,2013-02-22 16:37:00,
2013-02-22 11:42:00,62.1,53.6,29.97,SE,140,1.0,13.0,74,0.00,,,0.00,meteohub,2013-02-22 16:42:00,
2013-02-22 11:47:00,61.7,54.1,29.97,SE,132,11.0,12.0,76,0.00,,,0.00,meteohub,2013-02-22 16:47:00,
2013-02-22 11:52:00,61.5,52.7,29.97,East,101,6.0,11.0,73,0.00,,,0.00,meteohub,2013-02-22 16:52:00,
2013-02-22 11:58:00,61.9,52.0,29.96,SSE,148,9.0,11.0,70,0.00,,,0.00,meteohub,2013-02-22 16:58:00,
2013-02-22 12:03:00,62.2,51.1,29.96,SSE,151,8.0,13.0,67,0.00,,,0.00,meteohub,2013-02-22 17:03:00,
2013-02-22 12:08:00,62.4,50.9,29.97,NE,53,4.0,13.0,66,0.00,,,0.00,meteohub,2013-02-22 17:08:00,
2013-02-22 12:13:00,62.6,52.0,29.97,ESE,106,0.0,13.0,68,0.00,,,0.00,meteohub,2013-02-22 17:13:00,
2013-02-22 12:18:00,62.8,51.3,29.98,NE,36,0.0,13.0,66,0.00,,,0.00,meteohub,2013-02-22 17:18:00,
2013-02-22 12:23:00,63.0,51.4,29.99,NE,35,0.0,9.0,66,0.00,,,0.00,meteohub,2013-02-22 17:23:00,
2013-02-22 12:28:00,63.1,50.7,29.98,ESE,104,4.0,4.0,64,0.00,,,0.00,meteohub,2013-02-22 17:28:00,
2013-02-22 12:33:00,63.3,50.0,29.97,SSE,165,6.0,6.0,62,0.00,,,0.00,meteohub,2013-02-22 17:33:00,
2013-02-22 12:38:00,63.7,50.4,29.97,SE,139,4.0,9.0,62,0.00,,,0.00,meteohub,2013-02-22 17:38:00,
2013-02-22 12:43:00,63.9,50.5,29.96,East,87,3.0,12.0,62,0.00,,,0.00,meteohub,2013-02-22 17:43:00,
2013-02-22 12:48:00,64.0,51.3,29.94,ESE,122,4.0,12.0,63,0.00,,,0.00,meteohub,2013-02-22 17:48:00,
2013-02-22 12:53:00,64.2,50.9,29.94,SSE,150,8.0,12.0,62,0.00,,,0.00,meteohub,2013-02-22 17:53:00,
2013-02-22 12:58:00,64.6,50.9,29.94,East,88,3.0,12.0,61,0.00,,,0.00,meteohub,2013-02-22 17:58:00,
2013-02-22 13:03:00,64.6,50.9,29.95,SE,133,4.0,16.0,61,0.00,,,0.00,meteohub,2013-02-22 18:03:00,
2013-02-22 13:08:00,64.8,51.1,29.96,SSE,167,7.0,16.0,61,0.00,,,0.00,meteohub,2013-02-22 18:08:00,
2013-02-22 13:13:00,64.8,50.5,29.96,SSE,148,6.0,16.0,60,0.00,,,0.00,meteohub,2013-02-22 18:13:00,
2013-02-22 13:18:00,64.9,51.1,29.94,SSE,148,6.0,11.0,61,0.00,,,0.00,meteohub,2013-02-22 18:18:00,
2013-02-22 13:23:00,65.1,51.3,29.94,East,94,6.0,11.0,61,0.00,,,0.00,meteohub,2013-02-22 18:23:00,
2013-02-22 13:28:00,65.1,51.3,29.94,ESE,112,0.0,11.0,61,0.00,,,0.00,meteohub,2013-02-22 18:28:00,
2013-02-22 13:34:00,65.1,51.3,29.94,SE,138,5.0,11.0,61,0.00,,,0.00,meteohub,2013-02-22 18:34:00,
2013-02-22 13:39:00,65.1,51.3,29.93,SE,134,2.0,14.0,61,0.00,,,0.00,meteohub,2013-02-22 18:39:00,
2013-02-22 13:44:00,65.1,51.3,29.93,ESE,119,6.0,14.0,61,0.00,,,0.00,meteohub,2013-02-22 18:44:00,
2013-02-22 13:49:00,65.1,50.9,29.92,ESE,121,7.0,14.0,60,0.00,,,0.00,meteohub,2013-02-22 18:49:00,
2013-02-22 13:54:00,65.5,51.6,29.92,NE,40,1.0,14.0,61,0.00,,,0.00,meteohub,2013-02-22 18:54:00,
2013-02-22 13:59:00,65.7,51.4,29.93,ESE,113,1.0,14.0,60,0.00,,,0.00,meteohub,2013-02-22 18:59:00,
2013-02-22 14:04:00,65.8,51.1,29.91,SSE,155,7.0,14.0,59,0.00,,,0.00,meteohub,2013-02-22 19:04:00,
2013-02-22 14:09:00,65.8,50.7,29.92,South,170,9.0,12.0,58,0.00,,,0.00,meteohub,2013-02-22 19:09:00,
2013-02-22 14:14:00,65.8,50.7,29.91,NE,39,4.0,15.0,58,0.00,,,0.00,meteohub,2013-02-22 19:14:00,
2013-02-22 14:19:00,66.0,51.3,29.91,ESE,107,5.0,15.0,59,0.00,,,0.00,meteohub,2013-02-22 19:19:00,
2013-02-22 14:24:00,66.2,50.9,29.90,SE,136,2.0,14.0,58,0.00,,,0.00,meteohub,2013-02-22 19:24:00,
2013-02-22 14:29:00,66.6,51.3,29.91,SSE,159,6.0,12.0,58,0.00,,,0.00,meteohub,2013-02-22 19:29:00,
2013-02-22 14:34:00,66.4,51.1,29.91,ESE,123,7.0,12.0,58,0.00,,,0.00,meteohub,2013-02-22 19:34:00,
2013-02-22 14:39:00,66.2,51.4,29.91,ESE,113,5.0,12.0,59,0.00,,,0.00,meteohub,2013-02-22 19:39:00,
2013-02-22 14:44:00,66.0,51.3,29.91,South,178,0.0,13.0,59,0.00,,,0.00,meteohub,2013-02-22 19:44:00,
2013-02-22 14:49:00,66.0,51.3,29.91,ESE,122,0.0,13.0,59,0.00,,,0.00,meteohub,2013-02-22 19:49:00,
2013-02-22 14:54:00,66.2,51.4,29.90,SE,138,4.0,12.0,59,0.00,,,0.00,meteohub,2013-02-22 19:54:00,
2013-02-22 14:59:00,66.4,52.2,29.90,ESE,116,0.0,8.0,60,0.00,,,0.00,meteohub,2013-02-22 19:59:00,
2013-02-22 15:04:00,66.2,51.4,29.90,SSE,151,10.0,10.0,59,0.00,,,0.00,meteohub,2013-02-22 20:04:00,
2013-02-22 15:09:00,66.0,51.8,29.91,ESE,108,4.0,8.0,60,0.00,,,0.00,meteohub,2013-02-22 20:09:00,
2013-02-22 15:14:00,66.0,51.8,29.91,SE,126,0.0,13.0,60,0.00,,,0.00,meteohub,2013-02-22 20:14:00,
2013-02-22 15:19:00,65.8,51.6,29.90,NE,44,2.0,13.0,60,0.00,,,0.00,meteohub,2013-02-22 20:19:00,
2013-02-22 15:25:00,66.0,52.2,29.90,ENE,57,0.0,9.0,61,0.00,,,0.00,meteohub,2013-02-22 20:25:00,
2013-02-22 15:30:00,66.0,52.2,29.90,SSE,163,0.0,9.0,61,0.00,,,0.00,meteohub,2013-02-22 20:30:00,
2013-02-22 15:35:00,66.2,52.3,29.90,SSE,152,0.0,10.0,61,0.00,,,0.00,meteohub,2013-02-22 20:35:00,
2013-02-22 15:40:00,66.2,52.3,29.90,NE,46,0.0,10.0,61,0.00,,,0.00,meteohub,2013-02-22 20:40:00,
2013-02-22 15:45:00,66.2,52.9,29.90,ENE,58,0.0,6.0,62,0.00,,,0.00,meteohub,2013-02-22 20:45:00,
2013-02-22 15:50:00,66.0,52.7,29.91,NNE,18,0.0,6.0,62,0.00,,,0.00,meteohub,2013-02-22 20:50:00,
2013-02-22 15:55:00,66.0,52.2,29.91,SE,145,2.0,10.0,61,0.00,,,0.00,meteohub,2013-02-22 20:55:00,
2013-02-22 16:00:00,65.8,52.5,29.90,South,191,0.0,10.0,62,0.00,,,0.00,meteohub,2013-02-22 21:00:00,
2013-02-22 16:05:00,65.8,52.5,29.90,SSE,151,0.0,10.0,62,0.00,,,0.00,meteohub,2013-02-22 21:05:00,
2013-02-22 16:10:00,65.8,52.5,29.90,SE,136,2.0,10.0,62,0.00,,,0.00,meteohub,2013-02-22 21:10:00,
2013-02-22 16:15:00,65.8,52.9,29.90,SE,146,0.0,10.0,63,0.00,,,0.00,meteohub,2013-02-22 21:15:00,
2013-02-22 16:20:00,65.8,52.5,29.90,SE,142,0.0,8.0,62,0.00,,,0.00,meteohub,2013-02-22 21:20:00,
2013-02-22 16:25:00,65.8,52.9,29.90,SE,133,0.0,8.0,63,0.00,,,0.00,meteohub,2013-02-22 21:25:00,
2013-02-22 16:30:00,65.8,52.5,29.89,SSE,149,7.0,9.0,62,0.00,,,0.00,meteohub,2013-02-22 21:30:00,
2013-02-22 16:35:00,65.7,52.7,29.89,SSE,159,4.0,11.0,63,0.00,,,0.00,meteohub,2013-02-22 21:35:00,
2013-02-22 16:40:00,65.7,52.7,29.89,NNE,28,0.0,11.0,63,0.00,,,0.00,meteohub,2013-02-22 21:40:00,
2013-02-22 16:45:00,65.7,52.3,29.89,NE,37,0.0,11.0,62,0.00,,,0.00,meteohub,2013-02-22 21:45:00,
2013-02-22 16:50:00,65.7,52.3,29.88,SSE,153,4.0,10.0,62,0.00,,,0.00,meteohub,2013-02-22 21:50:00,
2013-02-22 16:55:00,65.7,52.3,29.89,East,94,0.0,10.0,62,0.00,,,0.00,meteohub,2013-02-22 21:55:00,
2013-02-22 17:01:00,65.7,52.7,29.89,NE,37,0.0,10.0,63,0.00,,,0.00,meteohub,2013-02-22 22:01:00,
2013-02-22 17:06:00,65.7,52.3,29.89,ENE,63,0.0,6.0,62,0.00,,,0.00,meteohub,2013-02-22 22:06:00,
2013-02-22 17:11:00,65.7,52.3,29.88,ESE,109,4.0,6.0,62,0.00,,,0.00,meteohub,2013-02-22 22:11:00,
2013-02-22 17:16:00,65.7,52.3,29.89,NE,38,0.0,7.0,62,0.00,,,0.00,meteohub,2013-02-22 22:16:00,
2013-02-22 17:21:00,65.5,52.5,29.89,NE,44,1.0,7.0,63,0.00,,,0.00,meteohub,2013-02-22 22:21:00,
2013-02-22 17:26:00,65.5,52.2,29.89,NE,42,0.0,5.0,62,0.00,,,0.00,meteohub,2013-02-22 22:26:00,
2013-02-22 17:31:00,65.3,52.0,29.89,NNE,32,3.0,3.0,62,0.00,,,0.00,meteohub,2013-02-22 22:31:00,
2013-02-22 17:36:00,65.1,51.8,29.89,NE,37,0.0,6.0,62,0.00,,,0.00,meteohub,2013-02-22 22:36:00,
2013-02-22 17:41:00,64.9,51.6,29.88,ENE,74,0.0,7.0,62,0.00,,,0.00,meteohub,2013-02-22 22:41:00,
2013-02-22 17:46:00,64.9,51.1,29.89,South,173,0.0,7.0,61,0.00,,,0.00,meteohub,2013-02-22 22:46:00,
2013-02-22 17:51:00,64.8,51.4,29.89,NE,49,0.0,8.0,62,0.00,,,0.00,meteohub,2013-02-22 22:51:00,
2013-02-22 17:56:00,64.8,51.4,29.89,North,11,3.0,8.0,62,0.00,,,0.00,meteohub,2013-02-22 22:56:00,
2013-02-22 18:01:00,64.8,51.1,29.88,SE,141,9.0,9.0,61,0.00,,,0.00,meteohub,2013-02-22 23:01:00,
2013-02-22 18:06:00,64.8,51.4,29.88,SE,142,4.0,11.0,62,0.00,,,0.00,meteohub,2013-02-22 23:06:00,
2013-02-22 18:11:00,64.8,51.4,29.89,SSE,148,0.0,11.0,62,0.00,,,0.00,meteohub,2013-02-22 23:11:00,
2013-02-22 18:16:00,64.6,51.3,29.88,SE,146,1.0,11.0,62,0.00,,,0.00,meteohub,2013-02-22 23:16:00,
2013-02-22 18:21:00,64.6,51.6,29.88,SSE,165,1.0,9.0,63,0.00,,,0.00,meteohub,2013-02-22 23:21:00,
2013-02-22 18:26:00,64.6,52.2,29.89,East,89,0.0,9.0,64,0.00,,,0.00,meteohub,2013-02-22 23:26:00,
2013-02-22 18:31:00,64.4,52.0,29.89,NE,53,0.0,9.0,64,0.00,,,0.00,meteohub,2013-02-22 23:31:00,
2013-02-22 18:36:00,64.2,52.2,29.89,SSE,162,0.0,9.0,65,0.00,,,0.00,meteohub,2013-02-22 23:36:00,
2013-02-22 18:42:00,64.2,52.2,29.89,ENE,61,0.0,6.0,65,0.00,,,0.00,meteohub,2013-02-22 23:42:00,
2013-02-22 18:47:00,64.2,52.2,29.90,South,177,0.0,6.0,65,0.00,,,0.00,meteohub,2013-02-22 23:47:00,
2013-02-22 18:52:00,64.2,52.7,29.89,NE,37,0.0,6.0,66,0.00,,,0.00,meteohub,2013-02-22 23:52:00,
2013-02-22 18:57:00,64.2,52.7,29.89,SSE,163,4.0,4.0,66,0.00,,,0.00,meteohub,2013-02-22 23:57:00,
2013-02-22 19:02:00,64.0,52.9,29.89,NE,51,0.0,6.0,67,0.00,,,0.00,meteohub,2013-02-23 00:02:00,
2013-02-22 19:07:00,64.0,52.9,29.90,SE,139,0.0,6.0,67,0.00,,,0.00,meteohub,2013-02-23 00:07:00,
2013-02-22 19:12:00,63.9,53.1,29.89,South,169,0.0,6.0,68,0.00,,,0.00,meteohub,2013-02-23 00:12:00,
2013-02-22 19:17:00,63.9,53.1,29.89,ENE,61,0.0,4.0,68,0.00,,,0.00,meteohub,2013-02-23 00:17:00,
2013-02-22 19:22:00,63.9,53.1,29.89,SE,139,0.0,4.0,68,0.00,,,0.00,meteohub,2013-02-23 00:22:00,
2013-02-22 19:27:00,63.7,52.9,29.90,NE,40,4.0,5.0,68,0.00,,,0.00,meteohub,2013-02-23 00:27:00,
2013-02-22 19:32:00,63.7,52.9,29.89,SSE,156,4.0,6.0,68,0.00,,,0.00,meteohub,2013-02-23 00:32:00,
2013-02-22 19:37:00,63.5,52.7,29.89,NE,37,5.0,7.0,68,0.00,,,0.00,meteohub,2013-02-23 00:37:00,
2013-02-22 19:42:00,63.3,53.1,29.90,SE,146,0.0,7.0,69,0.00,,,0.00,meteohub,2013-02-23 00:42:00,
2013-02-22 19:47:00,63.3,52.5,29.90,South,186,0.0,7.0,68,0.00,,,0.00,meteohub,2013-02-23 00:47:00,
2013-02-22 19:52:00,63.3,53.1,29.90,South,191,0.0,9.0,69,0.00,,,0.00,meteohub,2013-02-23 00:52:00,
2013-02-22 19:57:00,63.3,54.1,29.90,NE,34,2.0,9.0,72,0.00,,,0.00,meteohub,2013-02-23 00:57:00,
2013-02-22 20:02:00,63.1,54.3,29.90,NE,34,0.0,9.0,73,0.00,,,0.00,meteohub,2013-02-23 01:02:00,
2013-02-22 20:07:00,62.8,53.6,29.89,NE,41,0.0,4.0,72,0.00,,,0.00,meteohub,2013-02-23 01:07:00,
2013-02-22 20:12:00,62.4,53.6,29.89,NNW,341,0.0,6.0,73,0.00,,,0.00,meteohub,2013-02-23 01:12:00,
2013-02-22 20:17:00,62.4,53.6,29.89,North,350,0.0,6.0,73,0.00,,,0.00,meteohub,2013-02-23 01:17:00,
2013-02-22 20:22:00,62.2,53.4,29.89,NE,40,2.0,6.0,73,0.00,,,0.00,meteohub,2013-02-23 01:22:00,
2013-02-22 20:27:00,62.1,52.9,29.88,East,95,1.0,6.0,72,0.00,,,0.00,meteohub,2013-02-23 01:27:00,
2013-02-22 20:32:00,61.9,52.7,29.89,ENE,59,0.0,7.0,72,0.00,,,0.00,meteohub,2013-02-23 01:32:00,
2013-02-22 20:37:00,61.9,52.3,29.89,NNE,14,0.0,7.0,71,0.00,,,0.00,meteohub,2013-02-23 01:37:00,
2013-02-22 20:42:00,61.9,52.7,29.90,ENE,74,6.0,9.0,72,0.00,,,0.00,meteohub,2013-02-23 01:42:00,
2013-02-22 20:47:00,61.7,52.9,29.89,East,97,5.0,10.0,73,0.00,,,0.00,meteohub,2013-02-23 01:47:00,
2013-02-22 20:52:00,61.2,53.2,29.88,ENE,70,3.0,12.0,75,0.00,,,0.00,meteohub,2013-02-23 01:52:00,
2013-02-22 20:57:00,60.4,54.0,29.88,ESE,121,0.0,12.0,79,0.00,,,0.00,meteohub,2013-02-23 01:57:00,
2013-02-22 21:02:00,59.4,53.8,29.90,NNE,19,4.0,12.0,82,0.00,,,0.00,meteohub,2013-02-23 02:02:00,
2013-02-22 21:07:00,58.3,53.8,29.92,North,5,3.0,10.0,85,0.00,,,0.00,meteohub,2013-02-23 02:07:00,
2013-02-22 21:12:00,57.4,53.6,29.94,NNW,331,0.0,7.0,87,0.00,,,0.00,meteohub,2013-02-23 02:12:00,
2013-02-22 21:17:00,56.7,53.4,29.94,NNE,28,5.0,8.0,89,0.00,,,0.00,meteohub,2013-02-23 02:17:00,
2013-02-22 21:22:00,56.3,53.8,29.95,WNW,301,0.0,12.0,91,0.00,,,0.00,meteohub,2013-02-23 02:22:00,
2013-02-22 21:27:00,56.1,53.8,29.92,SSE,149,0.0,12.0,92,0.00,,,0.00,meteohub,2013-02-23 02:27:00,
2013-02-22 21:32:00,55.9,53.6,29.92,NE,35,3.0,8.0,92,0.00,,,0.00,meteohub,2013-02-23 02:32:00,
2013-02-22 21:37:00,55.9,54.0,29.93,NE,42,0.0,8.0,93,0.00,,,0.00,meteohub,2013-02-23 02:37:00,
2013-02-22 21:42:00,55.9,54.0,29.93,East,88,1.0,8.0,93,0.00,,,0.00,meteohub,2013-02-23 02:42:00,
2013-02-22 21:47:00,55.9,54.3,29.94,NNE,26,0.0,6.0,94,0.00,,,0.00,meteohub,2013-02-23 02:47:00,
2013-02-22 21:52:00,55.9,54.3,29.94,NNE,25,0.0,3.0,94,0.00,,,0.00,meteohub,2013-02-23 02:52:00,
2013-02-22 21:57:00,56.1,54.5,29.94,NNE,25,0.0,3.0,94,0.00,,,0.00,meteohub,2013-02-23 02:57:00,
2013-02-22 22:02:00,56.1,54.5,29.92,SE,128,0.0,4.0,94,0.00,,,0.00,meteohub,2013-02-23 03:02:00,
2013-02-22 22:07:00,56.1,54.5,29.94,NNW,345,0.0,4.0,94,0.00,,,0.00,meteohub,2013-02-23 03:07:00,
2013-02-22 22:12:00,56.1,54.5,29.94,NNW,345,0.0,4.0,94,0.00,,,0.00,meteohub,2013-02-23 03:12:00,
2013-02-22 22:17:00,56.1,54.5,29.94,NE,53,0.0,3.0,94,0.00,,,0.00,meteohub,2013-02-23 03:17:00,
2013-02-22 22:22:00,55.9,54.3,29.94,NNE,33,0.0,4.0,94,0.00,,,0.00,meteohub,2013-02-23 03:22:00,
2013-02-22 22:27:00,55.9,54.3,29.93,ENE,69,0.0,4.0,94,0.00,,,0.00,meteohub,2013-02-23 03:27:00,
2013-02-22 22:32:00,55.8,54.1,29.94,NE,46,0.0,4.0,94,0.00,,,0.00,meteohub,2013-02-23 03:32:00,
2013-02-22 22:37:00,55.8,54.1,29.94,ENE,73,0.0,5.0,94,0.00,,,0.00,meteohub,2013-02-23 03:37:00,
2013-02-22 22:42:00,55.6,54.0,29.94,SSE,157,0.0,5.0,94,0.00,,,0.00,meteohub,2013-02-23 03:42:00,
2013-02-22 22:47:00,55.6,54.0,29.94,NE,54,0.0,5.0,94,0.00,,,0.00,meteohub,2013-02-23 03:47:00,
2013-02-22 22:52:00,55.4,53.8,29.94,NE,56,2.0,4.0,94,0.00,,,0.00,meteohub,2013-02-23 03:52:00,
2013-02-22 22:57:00,55.4,53.8,29.94,SSE,161,0.0,5.0,94,0.00,,,0.00,meteohub,2013-02-23 03:57:00,
2013-02-22 23:02:00,55.2,53.6,29.94,South,187,0.0,7.0,94,0.00,,,0.00,meteohub,2013-02-23 04:02:00,
2013-02-22 23:07:00,55.2,53.6,29.93,NE,56,5.0,7.0,94,0.00,,,0.00,meteohub,2013-02-23 04:07:00,
2013-02-22 23:12:00,55.0,53.4,29.93,NE,49,0.0,7.0,94,0.00,,,0.00,meteohub,2013-02-23 04:12:00,
2013-02-22 23:17:00,55.0,53.4,29.94,NE,48,4.0,6.0,94,0.00,,,0.00,meteohub,2013-02-23 04:17:00,
2013-02-22 23:22:00,55.0,53.4,29.94,NE,36,0.0,6.0,94,0.00,,,0.00,meteohub,2013-02-23 04:22:00,
2013-02-22 23:27:00,55.0,53.4,29.94,SE,131,0.0,4.0,94,0.00,,,0.00,meteohub,2013-02-23 04:27:00,
2013-02-22 23:32:00,55.0,53.4,29.91,SSE,168,0.0,5.0,94,0.00,,,0.00,meteohub,2013-02-23 04:32:00,
2013-02-22 23:37:00,54.9,53.2,29.92,ENE,70,0.0,6.0,94,0.00,,,0.00,meteohub,2013-02-23 04:37:00,
2013-02-22 23:42:00,54.7,53.1,29.93,NE,44,0.0,7.0,94,0.00,,,0.00,meteohub,2013-02-23 04:42:00,
2013-02-22 23:47:00,54.7,53.1,29.93,SSE,161,4.0,7.0,94,0.00,,,0.00,meteohub,2013-02-23 04:47:00,
2013-02-22 23:52:00,54.5,52.9,29.93,East,84,0.0,7.0,94,0.00,,,0.00,meteohub,2013-02-23 04:52:00,
2013-02-22 23:57:00,54.7,53.1,29.92,SSE,160,0.0,5.0,94,0.00,,,0.00,meteohub,2013-02-23 04:57:00,